Aeroporto :
LOGIN :

Iscrizione | Disclaimer

   EN    FR    IT 

 










Sommario :    VFR   VFR Marginale   IFR   IFR Intensivo   IFR Molto Intensivo
Visibilità : 
Base nubi : 
>= 8 km
>= 3000ft
5 / 8 km
1000 / 3000 ft
1500m / 5 km
500 / 1000 ft
800 / 1500m
200 / 500 ft
< 800m
< 200 ft
Simboli :   Temporali  Nebbia  Neve Forte  Precipitazioni Forti  Vento > 20 kt
SIGMETs :   Varie  Temporali  Ghiacco  Turbolenza  Onda orograficha  Ceneri Vulcaniche






- Altitudine del aeroporto : 38 ft
- Codice IATA : TRE


EGPU - Tiree

ULTIMO METAR :
  • 251820Z AUTO 21016KT 180V240 4100 HZ OVC007/// 11/10 Q1027 RERA

METARs OBSOLETI :
  • 251750Z AUTO 20014KT 9999 OVC012/// 11/10 Q1027 RERA
  • 251720Z AUTO 20016KT 170V230 6000 -RADZ BKN015/// 11/10 Q1027
  • 251650Z AUTO 20016KT 170V230 3900 -RA BKN016/// 11/10 Q1027
  • 251620Z AUTO 20019KT 170V230 1400 -RA BKN019/// 11/10 Q1027
  • 251550Z AUTO 20016KT 180V240 5000 HZ BKN019/// BKN027/// 11/10 Q1027 RERA

TAF AMD TAF EGPU
Valido dal 25 a 17 ore il 26 a 00 ore UTC


251726Z 2517/2524 21012KT 9999 SCT020
TEMPO 2517/2520 22020G32KT
TEMPO 2517/2520 6000 RA BKN008
PROB30
TEMPO 2517/2522 1200 BR RADZ BKN003



MetMap, La meteo Aeronautica in un colpo d'occhio ! - Copyright ORBIFLY Dicembre 2007 - Disclaimer

ORBIFLY MET'MAP TEAM :

Programmazione e sviluppo : Alexandra Zaïnal
Concezione : Baudouin d'Aumeries
Aiuto per la programmazione : Marc-Olivier Méhu
Supporto tecnico e logistico : Manuel Goepfert
Aiuto per la traduzione : Arnaldo La Scala

Contatto : metmap@orbifly.com




FONTI E CREDITI :

   NOAA